sensor_id;sensor_type;location;lat;lon;timestamp;P1;durP1;ratioP1;P2;durP2;ratioP2
55497;SDS011;41357;52.806;18.268;2023-02-28T00:01:13;20.15;;;8.27;;
55497;SDS011;41357;52.806;18.268;2023-02-28T00:03:40;17.85;;;7.55;;
55497;SDS011;41357;52.806;18.268;2023-02-28T00:06:07;22.35;;;8.10;;
55497;SDS011;41357;52.806;18.268;2023-02-28T00:08:34;22.77;;;8.88;;
55497;SDS011;41357;52.806;18.268;2023-02-28T00:11:04;20.80;;;7.93;;
55497;SDS011;41357;52.806;18.268;2023-02-28T00:13:31;22.50;;;8.30;;
55497;SDS011;41357;52.806;18.268;2023-02-28T00:16:04;22.83;;;8.98;;
55497;SDS011;41357;52.806;18.268;2023-02-28T00:18:31;21.02;;;8.52;;
55497;SDS011;41357;52.806;18.268;2023-02-28T00:20:57;25.05;;;8.38;;
55497;SDS011;41357;52.806;18.268;2023-02-28T00:23:24;24.25;;;7.72;;
55497;SDS011;41357;52.806;18.268;2023-02-28T00:25:50;16.35;;;7.70;;
55497;SDS011;41357;52.806;18.268;2023-02-28T00:28:16;21.35;;;7.15;;
55497;SDS011;41357;52.806;18.268;2023-02-28T00:30:42;21.15;;;7.80;;
55497;SDS011;41357;52.806;18.268;2023-02-28T00:33:08;20.95;;;7.75;;
55497;SDS011;41357;52.806;18.268;2023-02-28T00:35:34;24.52;;;7.43;;
55497;SDS011;41357;52.806;18.268;2023-02-28T00:38:00;22.63;;;7.78;;
55497;SDS011;41357;52.806;18.268;2023-02-28T00:40:27;21.27;;;8.18;;
55497;SDS011;41357;52.806;18.268;2023-02-28T00:42:53;17.77;;;8.27;;
55497;SDS011;41357;52.806;18.268;2023-02-28T00:45:20;17.30;;;8.18;;
55497;SDS011;41357;52.806;18.268;2023-02-28T00:47:46;19.05;;;7.18;;
55497;SDS011;41357;52.806;18.268;2023-02-28T00:50:15;18.52;;;7.20;;
55497;SDS011;41357;52.806;18.268;2023-02-28T00:52:41;20.50;;;6.82;;
55497;SDS011;41357;52.806;18.268;2023-02-28T00:55:07;23.88;;;7.30;;
55497;SDS011;41357;52.806;18.268;2023-02-28T00:57:33;22.85;;;8.05;;
55497;SDS011;41357;52.806;18.268;2023-02-28T00:59:59;18.70;;;8.32;;
55497;SDS011;41357;52.806;18.268;2023-02-28T01:02:25;19.77;;;7.78;;
55497;SDS011;41357;52.806;18.268;2023-02-28T01:04:51;22.55;;;7.72;;
55497;SDS011;41357;52.806;18.268;2023-02-28T01:07:18;24.63;;;8.02;;
55497;SDS011;41357;52.806;18.268;2023-02-28T01:09:44;15.10;;;7.05;;
55497;SDS011;41357;52.806;18.268;2023-02-28T01:12:11;22.80;;;7.10;;
55497;SDS011;41357;52.806;18.268;2023-02-28T01:14:37;25.73;;;8.20;;
55497;SDS011;41357;52.806;18.268;2023-02-28T01:17:03;30.10;;;8.60;;
55497;SDS011;41357;52.806;18.268;2023-02-28T01:19:29;18.13;;;8.25;;
55497;SDS011;41357;52.806;18.268;2023-02-28T01:21:55;29.67;;;7.65;;
55497;SDS011;41357;52.806;18.268;2023-02-28T01:24:21;19.55;;;9.02;;
55497;SDS011;41357;52.806;18.268;2023-02-28T01:26:50;22.48;;;8.82;;
55497;SDS011;41357;52.806;18.268;2023-02-28T01:29:16;17.85;;;7.63;;
55497;SDS011;41357;52.806;18.268;2023-02-28T01:31:42;19.80;;;7.32;;
55497;SDS011;41357;52.806;18.268;2023-02-28T01:34:08;22.92;;;8.35;;
55497;SDS011;41357;52.806;18.268;2023-02-28T01:36:34;19.08;;;7.00;;
55497;SDS011;41357;52.806;18.268;2023-02-28T01:39:01;18.60;;;7.75;;
55497;SDS011;41357;52.806;18.268;2023-02-28T01:41:29;19.25;;;7.55;;
55497;SDS011;41357;52.806;18.268;2023-02-28T01:46:24;19.92;;;6.93;;
55497;SDS011;41357;52.806;18.268;2023-02-28T01:51:28;23.90;;;8.02;;
55497;SDS011;41357;52.806;18.268;2023-02-28T01:53:56;24.58;;;7.72;;
55497;SDS011;41357;52.806;18.268;2023-02-28T01:56:24;19.08;;;6.88;;
55497;SDS011;41357;52.806;18.268;2023-02-28T01:58:52;14.75;;;6.35;;
55497;SDS011;41357;52.806;18.268;2023-02-28T02:01:20;20.60;;;8.05;;
55497;SDS011;41357;52.806;18.268;2023-02-28T02:03:48;22.00;;;8.27;;
55497;SDS011;41357;52.806;18.268;2023-02-28T02:06:20;24.35;;;8.55;;
55497;SDS011;41357;52.806;18.268;2023-02-28T02:08:46;23.50;;;9.30;;
55497;SDS011;41357;52.806;18.268;2023-02-28T02:11:12;20.85;;;7.45;;
55497;SDS011;41357;52.806;18.268;2023-02-28T02:16:34;23.75;;;8.20;;
55497;SDS011;41357;52.806;18.268;2023-02-28T02:19:14;22.15;;;8.27;;
55497;SDS011;41357;52.806;18.268;2023-02-28T02:40:36;27.30;;;9.65;;
55497;SDS011;41357;52.806;18.268;2023-02-28T02:48:01;25.95;;;9.68;;
55497;SDS011;41357;52.806;18.268;2023-02-28T02:50:31;26.58;;;10.45;;
55497;SDS011;41357;52.806;18.268;2023-02-28T02:53:00;34.17;;;12.45;;
55497;SDS011;41357;52.806;18.268;2023-02-28T02:55:26;22.60;;;10.05;;
55497;SDS011;41357;52.806;18.268;2023-02-28T02:57:54;29.67;;;11.35;;
55497;SDS011;41357;52.806;18.268;2023-02-28T03:00:24;30.48;;;10.73;;
55497;SDS011;41357;52.806;18.268;2023-02-28T03:02:51;25.95;;;10.63;;
55497;SDS011;41357;52.806;18.268;2023-02-28T03:05:20;29.67;;;11.25;;
55497;SDS011;41357;52.806;18.268;2023-02-28T03:07:48;31.80;;;11.10;;
55497;SDS011;41357;52.806;18.268;2023-02-28T03:12:56;34.58;;;12.15;;
55497;SDS011;41357;52.806;18.268;2023-02-28T03:15:25;24.90;;;10.73;;
55497;SDS011;41357;52.806;18.268;2023-02-28T03:18:14;33.60;;;11.05;;
55497;SDS011;41357;52.806;18.268;2023-02-28T03:20:51;24.83;;;10.68;;
55497;SDS011;41357;52.806;18.268;2023-02-28T03:23:23;29.23;;;11.85;;
55497;SDS011;41357;52.806;18.268;2023-02-28T03:31:07;29.30;;;11.50;;
55497;SDS011;41357;52.806;18.268;2023-02-28T03:33:38;27.95;;;11.23;;
55497;SDS011;41357;52.806;18.268;2023-02-28T03:36:09;24.80;;;10.88;;
55497;SDS011;41357;52.806;18.268;2023-02-28T03:38:41;25.30;;;11.90;;
55497;SDS011;41357;52.806;18.268;2023-02-28T03:41:22;29.38;;;11.10;;
55497;SDS011;41357;52.806;18.268;2023-02-28T03:43:58;24.90;;;9.38;;
55497;SDS011;41357;52.806;18.268;2023-02-28T03:46:26;29.98;;;12.25;;
55497;SDS011;41357;52.806;18.268;2023-02-28T03:49:30;21.77;;;9.00;;
55497;SDS011;41357;52.806;18.268;2023-02-28T03:51:47;28.73;;;9.60;;
55497;SDS011;41357;52.806;18.268;2023-02-28T03:54:15;22.58;;;10.55;;
55497;SDS011;41357;52.806;18.268;2023-02-28T03:56:46;22.98;;;9.90;;
55497;SDS011;41357;52.806;18.268;2023-02-28T03:59:15;30.38;;;11.57;;
55497;SDS011;41357;52.806;18.268;2023-02-28T04:01:45;28.20;;;9.23;;
55497;SDS011;41357;52.806;18.268;2023-02-28T04:04:12;35.75;;;10.98;;
55497;SDS011;41357;52.806;18.268;2023-02-28T04:06:39;24.80;;;8.73;;
55497;SDS011;41357;52.806;18.268;2023-02-28T04:09:06;21.67;;;9.90;;
55497;SDS011;41357;52.806;18.268;2023-02-28T04:11:42;35.45;;;11.40;;
55497;SDS011;41357;52.806;18.268;2023-02-28T04:14:09;24.75;;;9.48;;
55497;SDS011;41357;52.806;18.268;2023-02-28T04:16:36;22.77;;;10.38;;
55497;SDS011;41357;52.806;18.268;2023-02-28T04:19:03;25.45;;;10.15;;
55497;SDS011;41357;52.806;18.268;2023-02-28T04:21:31;28.27;;;11.35;;
55497;SDS011;41357;52.806;18.268;2023-02-28T04:23:57;22.38;;;9.18;;
55497;SDS011;41357;52.806;18.268;2023-02-28T04:26:35;26.98;;;10.32;;
55497;SDS011;41357;52.806;18.268;2023-02-28T04:29:02;25.55;;;9.82;;
55497;SDS011;41357;52.806;18.268;2023-02-28T04:31:28;25.73;;;11.05;;
55497;SDS011;41357;52.806;18.268;2023-02-28T04:33:54;24.10;;;9.88;;
55497;SDS011;41357;52.806;18.268;2023-02-28T04:36:21;28.25;;;9.40;;
55497;SDS011;41357;52.806;18.268;2023-02-28T04:38:48;27.98;;;9.27;;
55497;SDS011;41357;52.806;18.268;2023-02-28T04:41:15;29.92;;;9.57;;
55497;SDS011;41357;52.806;18.268;2023-02-28T04:43:41;27.17;;;8.98;;
55497;SDS011;41357;52.806;18.268;2023-02-28T04:46:07;26.88;;;9.88;;
55497;SDS011;41357;52.806;18.268;2023-02-28T04:48:35;20.25;;;9.20;;
55497;SDS011;41357;52.806;18.268;2023-02-28T04:51:05;22.95;;;9.27;;
55497;SDS011;41357;52.806;18.268;2023-02-28T04:53:31;26.05;;;9.18;;
55497;SDS011;41357;52.806;18.268;2023-02-28T04:55:57;20.65;;;10.15;;
55497;SDS011;41357;52.806;18.268;2023-02-28T04:58:25;20.95;;;9.60;;
55497;SDS011;41357;52.806;18.268;2023-02-28T05:00:51;24.13;;;10.63;;
55497;SDS011;41357;52.806;18.268;2023-02-28T05:03:17;26.60;;;10.10;;
55497;SDS011;41357;52.806;18.268;2023-02-28T05:05:44;23.83;;;8.73;;
55497;SDS011;41357;52.806;18.268;2023-02-28T05:08:10;25.50;;;9.25;;
55497;SDS011;41357;52.806;18.268;2023-02-28T05:10:36;29.17;;;9.52;;
55497;SDS011;41357;52.806;18.268;2023-02-28T05:13:02;25.38;;;10.73;;
55497;SDS011;41357;52.806;18.268;2023-02-28T05:15:28;30.42;;;10.05;;
55497;SDS011;41357;52.806;18.268;2023-02-28T05:17:54;18.15;;;8.77;;
55497;SDS011;41357;52.806;18.268;2023-02-28T05:20:20;23.80;;;8.95;;
55497;SDS011;41357;52.806;18.268;2023-02-28T05:22:47;23.10;;;8.77;;
55497;SDS011;41357;52.806;18.268;2023-02-28T05:25:15;28.27;;;9.63;;
55497;SDS011;41357;52.806;18.268;2023-02-28T05:27:42;26.15;;;9.90;;
55497;SDS011;41357;52.806;18.268;2023-02-28T05:30:08;23.25;;;8.63;;
55497;SDS011;41357;52.806;18.268;2023-02-28T05:32:38;18.48;;;7.47;;
55497;SDS011;41357;52.806;18.268;2023-02-28T05:35:07;28.52;;;10.45;;
55497;SDS011;41357;52.806;18.268;2023-02-28T05:37:33;31.65;;;11.35;;
55497;SDS011;41357;52.806;18.268;2023-02-28T05:39:59;23.58;;;10.20;;
55497;SDS011;41357;52.806;18.268;2023-02-28T05:42:25;24.13;;;10.00;;
55497;SDS011;41357;52.806;18.268;2023-02-28T05:44:52;24.58;;;9.07;;
55497;SDS011;41357;52.806;18.268;2023-02-28T05:47:18;22.98;;;8.85;;
55497;SDS011;41357;52.806;18.268;2023-02-28T05:49:44;24.33;;;10.13;;
55497;SDS011;41357;52.806;18.268;2023-02-28T05:52:10;29.80;;;9.60;;
55497;SDS011;41357;52.806;18.268;2023-02-28T05:54:36;27.55;;;9.35;;
55497;SDS011;41357;52.806;18.268;2023-02-28T05:57:02;22.83;;;9.48;;
55497;SDS011;41357;52.806;18.268;2023-02-28T05:59:28;27.30;;;11.35;;
55497;SDS011;41357;52.806;18.268;2023-02-28T06:01:54;28.58;;;10.63;;
55497;SDS011;41357;52.806;18.268;2023-02-28T06:04:20;26.73;;;10.70;;
55497;SDS011;41357;52.806;18.268;2023-02-28T06:06:47;24.77;;;10.20;;
55497;SDS011;41357;52.806;18.268;2023-02-28T06:09:13;23.63;;;10.63;;
55497;SDS011;41357;52.806;18.268;2023-02-28T06:11:39;32.60;;;12.18;;
55497;SDS011;41357;52.806;18.268;2023-02-28T06:14:07;27.92;;;10.25;;
55497;SDS011;41357;52.806;18.268;2023-02-28T06:16:38;42.20;;;12.23;;
55497;SDS011;41357;52.806;18.268;2023-02-28T06:19:04;29.75;;;12.60;;
55497;SDS011;41357;52.806;18.268;2023-02-28T06:21:30;32.33;;;13.35;;
55497;SDS011;41357;52.806;18.268;2023-02-28T06:23:57;38.22;;;14.35;;
55497;SDS011;41357;52.806;18.268;2023-02-28T06:26:23;43.15;;;16.33;;
55497;SDS011;41357;52.806;18.268;2023-02-28T06:28:50;34.15;;;14.77;;
55497;SDS011;41357;52.806;18.268;2023-02-28T06:31:16;38.65;;;16.83;;
55497;SDS011;41357;52.806;18.268;2023-02-28T06:33:43;54.63;;;19.30;;
55497;SDS011;41357;52.806;18.268;2023-02-28T06:36:10;51.13;;;17.70;;
55497;SDS011;41357;52.806;18.268;2023-02-28T06:38:37;49.17;;;19.17;;
55497;SDS011;41357;52.806;18.268;2023-02-28T06:41:03;47.58;;;17.30;;
55497;SDS011;41357;52.806;18.268;2023-02-28T06:43:31;50.75;;;19.90;;
55497;SDS011;41357;52.806;18.268;2023-02-28T06:45:58;44.53;;;19.85;;
55497;SDS011;41357;52.806;18.268;2023-02-28T06:48:25;51.13;;;21.98;;
55497;SDS011;41357;52.806;18.268;2023-02-28T06:50:52;69.00;;;25.33;;
55497;SDS011;41357;52.806;18.268;2023-02-28T06:53:18;62.90;;;25.27;;
55497;SDS011;41357;52.806;18.268;2023-02-28T06:55:45;71.35;;;27.30;;
55497;SDS011;41357;52.806;18.268;2023-02-28T06:58:11;64.75;;;26.15;;
55497;SDS011;41357;52.806;18.268;2023-02-28T07:00:42;49.00;;;20.75;;
55497;SDS011;41357;52.806;18.268;2023-02-28T07:03:09;52.13;;;22.23;;
55497;SDS011;41357;52.806;18.268;2023-02-28T07:05:35;54.85;;;22.30;;
55497;SDS011;41357;52.806;18.268;2023-02-28T07:08:02;59.63;;;25.05;;
55497;SDS011;41357;52.806;18.268;2023-02-28T07:10:29;68.30;;;27.75;;
55497;SDS011;41357;52.806;18.268;2023-02-28T07:12:55;56.33;;;21.13;;
55497;SDS011;41357;52.806;18.268;2023-02-28T07:15:21;64.68;;;22.80;;
55497;SDS011;41357;52.806;18.268;2023-02-28T07:17:47;51.55;;;21.60;;
55497;SDS011;41357;52.806;18.268;2023-02-28T07:20:13;59.35;;;21.58;;
55497;SDS011;41357;52.806;18.268;2023-02-28T07:22:39;54.72;;;21.23;;
55497;SDS011;41357;52.806;18.268;2023-02-28T07:25:06;45.58;;;20.02;;
55497;SDS011;41357;52.806;18.268;2023-02-28T07:27:33;61.30;;;22.65;;
55497;SDS011;41357;52.806;18.268;2023-02-28T07:29:59;50.10;;;21.40;;
55497;SDS011;41357;52.806;18.268;2023-02-28T07:32:27;52.60;;;21.02;;
55497;SDS011;41357;52.806;18.268;2023-02-28T07:34:53;59.10;;;24.35;;
55497;SDS011;41357;52.806;18.268;2023-02-28T07:37:19;64.90;;;26.15;;
55497;SDS011;41357;52.806;18.268;2023-02-28T07:39:45;63.50;;;25.42;;
55497;SDS011;41357;52.806;18.268;2023-02-28T07:42:11;64.20;;;26.20;;
55497;SDS011;41357;52.806;18.268;2023-02-28T07:44:38;78.78;;;28.42;;
55497;SDS011;41357;52.806;18.268;2023-02-28T07:47:08;71.60;;;31.48;;
55497;SDS011;41357;52.806;18.268;2023-02-28T07:49:35;91.22;;;33.30;;
55497;SDS011;41357;52.806;18.268;2023-02-28T07:52:02;88.43;;;34.10;;
55497;SDS011;41357;52.806;18.268;2023-02-28T07:54:28;75.60;;;29.95;;
55497;SDS011;41357;52.806;18.268;2023-02-28T07:56:54;87.40;;;32.30;;
55497;SDS011;41357;52.806;18.268;2023-02-28T07:59:20;75.57;;;30.20;;
55497;SDS011;41357;52.806;18.268;2023-02-28T08:01:47;76.75;;;30.10;;
55497;SDS011;41357;52.806;18.268;2023-02-28T08:04:15;79.65;;;29.40;;
55497;SDS011;41357;52.806;18.268;2023-02-28T08:06:41;75.03;;;29.20;;
55497;SDS011;41357;52.806;18.268;2023-02-28T08:09:07;62.70;;;25.90;;
55497;SDS011;41357;52.806;18.268;2023-02-28T08:11:33;70.18;;;25.75;;
55497;SDS011;41357;52.806;18.268;2023-02-28T08:13:59;56.20;;;25.75;;
55497;SDS011;41357;52.806;18.268;2023-02-28T08:16:26;53.88;;;22.80;;
55497;SDS011;41357;52.806;18.268;2023-02-28T08:18:52;43.53;;;21.05;;
55497;SDS011;41357;52.806;18.268;2023-02-28T08:21:18;45.80;;;21.77;;
55497;SDS011;41357;52.806;18.268;2023-02-28T08:23:48;51.72;;;22.27;;
55497;SDS011;41357;52.806;18.268;2023-02-28T08:26:15;45.47;;;18.98;;
55497;SDS011;41357;52.806;18.268;2023-02-28T08:28:41;46.47;;;20.52;;
55497;SDS011;41357;52.806;18.268;2023-02-28T08:31:08;42.83;;;19.27;;
55497;SDS011;41357;52.806;18.268;2023-02-28T08:33:34;44.22;;;17.70;;
55497;SDS011;41357;52.806;18.268;2023-02-28T08:36:01;35.58;;;15.52;;
55497;SDS011;41357;52.806;18.268;2023-02-28T08:38:27;36.17;;;16.83;;
55497;SDS011;41357;52.806;18.268;2023-02-28T08:41:00;36.10;;;15.90;;
55497;SDS011;41357;52.806;18.268;2023-02-28T08:43:27;36.72;;;15.77;;
55497;SDS011;41357;52.806;18.268;2023-02-28T08:45:53;33.97;;;15.30;;
55497;SDS011;41357;52.806;18.268;2023-02-28T08:48:21;34.35;;;14.40;;
55497;SDS011;41357;52.806;18.268;2023-02-28T08:50:57;27.73;;;13.75;;
55497;SDS011;41357;52.806;18.268;2023-02-28T08:53:24;29.10;;;12.50;;
55497;SDS011;41357;52.806;18.268;2023-02-28T08:56:03;29.52;;;13.57;;
55497;SDS011;41357;52.806;18.268;2023-02-28T08:58:30;28.27;;;12.75;;
55497;SDS011;41357;52.806;18.268;2023-02-28T09:00:56;27.77;;;12.23;;
55497;SDS011;41357;52.806;18.268;2023-02-28T09:03:22;33.20;;;14.20;;
55497;SDS011;41357;52.806;18.268;2023-02-28T09:05:53;25.60;;;11.88;;
55497;SDS011;41357;52.806;18.268;2023-02-28T09:08:19;30.33;;;12.03;;
55497;SDS011;41357;52.806;18.268;2023-02-28T09:10:45;25.77;;;11.27;;
55497;SDS011;41357;52.806;18.268;2023-02-28T09:13:12;32.35;;;14.68;;
55497;SDS011;41357;52.806;18.268;2023-02-28T09:15:38;34.45;;;13.70;;
55497;SDS011;41357;52.806;18.268;2023-02-28T09:18:04;26.30;;;12.30;;
55497;SDS011;41357;52.806;18.268;2023-02-28T09:20:30;28.13;;;12.38;;
55497;SDS011;41357;52.806;18.268;2023-02-28T09:22:56;30.73;;;11.60;;
55497;SDS011;41357;52.806;18.268;2023-02-28T09:25:22;21.48;;;7.53;;
55497;SDS011;41357;52.806;18.268;2023-02-28T09:27:48;16.70;;;9.23;;
55497;SDS011;41357;52.806;18.268;2023-02-28T09:30:15;10.38;;;4.50;;
55497;SDS011;41357;52.806;18.268;2023-02-28T09:32:41;17.77;;;7.75;;
55497;SDS011;41357;52.806;18.268;2023-02-28T09:35:07;24.42;;;9.18;;
55497;SDS011;41357;52.806;18.268;2023-02-28T09:37:38;18.45;;;8.40;;
55497;SDS011;41357;52.806;18.268;2023-02-28T09:40:05;12.82;;;6.65;;
55497;SDS011;41357;52.806;18.268;2023-02-28T09:42:32;16.13;;;6.95;;
55497;SDS011;41357;52.806;18.268;2023-02-28T09:45:00;20.25;;;7.30;;
55497;SDS011;41357;52.806;18.268;2023-02-28T09:47:29;19.83;;;8.43;;
55497;SDS011;41357;52.806;18.268;2023-02-28T09:49:58;16.55;;;7.93;;
55497;SDS011;41357;52.806;18.268;2023-02-28T09:52:28;16.77;;;7.03;;
55497;SDS011;41357;52.806;18.268;2023-02-28T09:54:55;16.10;;;7.70;;
55497;SDS011;41357;52.806;18.268;2023-02-28T09:59:57;17.40;;;6.03;;
55497;SDS011;41357;52.806;18.268;2023-02-28T10:05:11;12.77;;;5.45;;
55497;SDS011;41357;52.806;18.268;2023-02-28T10:10:18;8.43;;;3.75;;
55497;SDS011;41357;52.806;18.268;2023-02-28T10:12:46;9.40;;;3.95;;
55497;SDS011;41357;52.806;18.268;2023-02-28T10:15:14;11.35;;;3.80;;
55497;SDS011;41357;52.806;18.268;2023-02-28T10:17:41;5.63;;;3.05;;
55497;SDS011;41357;52.806;18.268;2023-02-28T10:20:12;7.05;;;2.92;;
55497;SDS011;41357;52.806;18.268;2023-02-28T10:25:23;7.65;;;2.88;;
55497;SDS011;41357;52.806;18.268;2023-02-28T10:27:50;5.95;;;3.10;;
55497;SDS011;41357;52.806;18.268;2023-02-28T10:30:18;5.35;;;2.45;;
55497;SDS011;41357;52.806;18.268;2023-02-28T10:32:47;5.43;;;2.53;;
55497;SDS011;41357;52.806;18.268;2023-02-28T10:35:16;7.63;;;2.90;;
55497;SDS011;41357;52.806;18.268;2023-02-28T10:37:44;7.82;;;2.90;;
55497;SDS011;41357;52.806;18.268;2023-02-28T10:40:33;4.30;;;2.42;;
55497;SDS011;41357;52.806;18.268;2023-02-28T10:43:02;4.78;;;2.50;;
55497;SDS011;41357;52.806;18.268;2023-02-28T10:45:29;3.75;;;1.80;;
55497;SDS011;41357;52.806;18.268;2023-02-28T10:47:58;5.82;;;2.72;;
55497;SDS011;41357;52.806;18.268;2023-02-28T10:50:41;5.38;;;2.65;;
55497;SDS011;41357;52.806;18.268;2023-02-28T10:55:40;10.55;;;3.90;;
55497;SDS011;41357;52.806;18.268;2023-02-28T10:58:20;13.35;;;3.63;;
55497;SDS011;41357;52.806;18.268;2023-02-28T11:00:47;9.48;;;4.30;;
55497;SDS011;41357;52.806;18.268;2023-02-28T11:03:34;8.70;;;3.65;;
55497;SDS011;41357;52.806;18.268;2023-02-28T11:06:04;8.23;;;4.07;;
55497;SDS011;41357;52.806;18.268;2023-02-28T11:08:31;9.65;;;3.75;;
55497;SDS011;41357;52.806;18.268;2023-02-28T11:10:58;11.05;;;4.57;;
55497;SDS011;41357;52.806;18.268;2023-02-28T11:13:32;14.45;;;4.78;;
55497;SDS011;41357;52.806;18.268;2023-02-28T11:15:59;13.30;;;5.38;;
55497;SDS011;41357;52.806;18.268;2023-02-28T11:20:52;11.05;;;5.38;;
55497;SDS011;41357;52.806;18.268;2023-02-28T11:23:19;7.43;;;3.83;;
55497;SDS011;41357;52.806;18.268;2023-02-28T11:25:50;11.25;;;4.45;;
55497;SDS011;41357;52.806;18.268;2023-02-28T11:31:01;12.82;;;4.75;;
55497;SDS011;41357;52.806;18.268;2023-02-28T11:33:29;17.10;;;4.50;;
55497;SDS011;41357;52.806;18.268;2023-02-28T11:36:01;10.07;;;3.65;;
55497;SDS011;41357;52.806;18.268;2023-02-28T11:38:27;11.00;;;3.83;;
55497;SDS011;41357;52.806;18.268;2023-02-28T11:48:38;15.88;;;7.18;;
55497;SDS011;41357;52.806;18.268;2023-02-28T11:51:12;18.55;;;7.95;;
55497;SDS011;41357;52.806;18.268;2023-02-28T12:06:45;16.50;;;6.28;;
55497;SDS011;41357;52.806;18.268;2023-02-28T12:09:18;14.18;;;6.10;;
55497;SDS011;41357;52.806;18.268;2023-02-28T12:27:39;13.55;;;5.82;;
55497;SDS011;41357;52.806;18.268;2023-02-28T12:30:12;13.43;;;6.10;;
55497;SDS011;41357;52.806;18.268;2023-02-28T12:32:43;14.98;;;5.40;;
55497;SDS011;41357;52.806;18.268;2023-02-28T12:35:12;15.50;;;4.85;;
55497;SDS011;41357;52.806;18.268;2023-02-28T12:40:26;15.77;;;5.68;;
55497;SDS011;41357;52.806;18.268;2023-02-28T12:42:54;11.68;;;5.82;;
55497;SDS011;41357;52.806;18.268;2023-02-28T12:45:38;14.93;;;5.05;;
55497;SDS011;41357;52.806;18.268;2023-02-28T12:48:06;12.70;;;5.38;;
55497;SDS011;41357;52.806;18.268;2023-02-28T12:50:35;13.48;;;5.53;;
55497;SDS011;41357;52.806;18.268;2023-02-28T12:55:51;11.13;;;4.38;;
55497;SDS011;41357;52.806;18.268;2023-02-28T13:11:29;13.57;;;4.70;;
55497;SDS011;41357;52.806;18.268;2023-02-28T13:14:05;10.70;;;4.60;;
55497;SDS011;41357;52.806;18.268;2023-02-28T13:19:17;11.52;;;4.82;;
55497;SDS011;41357;52.806;18.268;2023-02-28T13:21:46;9.40;;;4.15;;
55497;SDS011;41357;52.806;18.268;2023-02-28T13:24:35;9.23;;;4.20;;
55497;SDS011;41357;52.806;18.268;2023-02-28T13:29:28;11.70;;;5.05;;
55497;SDS011;41357;52.806;18.268;2023-02-28T13:39:57;14.88;;;5.78;;
55497;SDS011;41357;52.806;18.268;2023-02-28T13:47:29;9.68;;;4.65;;
55497;SDS011;41357;52.806;18.268;2023-02-28T13:50:41;10.50;;;5.03;;
55497;SDS011;41357;52.806;18.268;2023-02-28T13:52:47;8.25;;;4.15;;
55497;SDS011;41357;52.806;18.268;2023-02-28T13:58:04;10.68;;;4.53;;
55497;SDS011;41357;52.806;18.268;2023-02-28T14:05:44;10.82;;;5.93;;
55497;SDS011;41357;52.806;18.268;2023-02-28T14:08:15;10.20;;;5.82;;
55497;SDS011;41357;52.806;18.268;2023-02-28T14:10:45;14.48;;;6.20;;
55497;SDS011;41357;52.806;18.268;2023-02-28T14:13:36;15.23;;;6.07;;
55497;SDS011;41357;52.806;18.268;2023-02-28T14:16:02;12.07;;;6.28;;
55497;SDS011;41357;52.806;18.268;2023-02-28T14:18:30;17.33;;;6.85;;
55497;SDS011;41357;52.806;18.268;2023-02-28T14:20:59;13.68;;;6.57;;
55497;SDS011;41357;52.806;18.268;2023-02-28T14:31:25;20.60;;;6.85;;
55497;SDS011;41357;52.806;18.268;2023-02-28T14:34:17;19.42;;;7.10;;
55497;SDS011;41357;52.806;18.268;2023-02-28T14:36:43;18.48;;;7.70;;
55497;SDS011;41357;52.806;18.268;2023-02-28T14:39:16;19.77;;;6.97;;
55497;SDS011;41357;52.806;18.268;2023-02-28T14:41:44;22.58;;;7.35;;
55497;SDS011;41357;52.806;18.268;2023-02-28T14:44:24;17.30;;;7.32;;
55497;SDS011;41357;52.806;18.268;2023-02-28T14:46:54;15.63;;;6.68;;
55497;SDS011;41357;52.806;18.268;2023-02-28T14:49:23;20.40;;;6.95;;
55497;SDS011;41357;52.806;18.268;2023-02-28T14:52:01;17.05;;;7.70;;
55497;SDS011;41357;52.806;18.268;2023-02-28T14:54:27;17.58;;;7.35;;
55497;SDS011;41357;52.806;18.268;2023-02-28T14:56:54;19.02;;;7.10;;
55497;SDS011;41357;52.806;18.268;2023-02-28T14:59:31;10.15;;;6.10;;
55497;SDS011;41357;52.806;18.268;2023-02-28T15:04:42;18.58;;;5.85;;
55497;SDS011;41357;52.806;18.268;2023-02-28T15:07:17;20.20;;;8.25;;
55497;SDS011;41357;52.806;18.268;2023-02-28T15:09:43;23.58;;;6.13;;
55497;SDS011;41357;52.806;18.268;2023-02-28T15:12:13;22.30;;;8.80;;
55497;SDS011;41357;52.806;18.268;2023-02-28T15:14:41;23.77;;;8.38;;
55497;SDS011;41357;52.806;18.268;2023-02-28T15:17:09;23.90;;;9.75;;
55497;SDS011;41357;52.806;18.268;2023-02-28T15:19:41;19.08;;;8.98;;
55497;SDS011;41357;52.806;18.268;2023-02-28T15:22:10;14.90;;;7.38;;
55497;SDS011;41357;52.806;18.268;2023-02-28T15:24:39;14.50;;;6.73;;
55497;SDS011;41357;52.806;18.268;2023-02-28T15:27:07;16.65;;;7.80;;
55497;SDS011;41357;52.806;18.268;2023-02-28T15:29:53;14.20;;;6.03;;
55497;SDS011;41357;52.806;18.268;2023-02-28T15:32:24;18.05;;;7.13;;
55497;SDS011;41357;52.806;18.268;2023-02-28T15:34:51;21.90;;;8.45;;
55497;SDS011;41357;52.806;18.268;2023-02-28T15:42:41;19.33;;;6.85;;
55497;SDS011;41357;52.806;18.268;2023-02-28T15:47:55;15.93;;;6.38;;
55497;SDS011;41357;52.806;18.268;2023-02-28T15:50:21;14.23;;;6.13;;
55497;SDS011;41357;52.806;18.268;2023-02-28T15:52:47;24.40;;;8.18;;
55497;SDS011;41357;52.806;18.268;2023-02-28T15:55:22;20.88;;;7.82;;
55497;SDS011;41357;52.806;18.268;2023-02-28T15:57:49;20.67;;;6.78;;
55497;SDS011;41357;52.806;18.268;2023-02-28T16:00:19;30.20;;;8.60;;
55497;SDS011;41357;52.806;18.268;2023-02-28T16:02:46;43.65;;;14.95;;
55497;SDS011;41357;52.806;18.268;2023-02-28T16:05:25;57.13;;;20.65;;
55497;SDS011;41357;52.806;18.268;2023-02-28T16:23:47;42.00;;;14.13;;
55497;SDS011;41357;52.806;18.268;2023-02-28T16:26:22;46.75;;;14.73;;
55497;SDS011;41357;52.806;18.268;2023-02-28T16:36:39;94.20;;;28.38;;
55497;SDS011;41357;52.806;18.268;2023-02-28T16:39:06;102.05;;;28.33;;
55497;SDS011;41357;52.806;18.268;2023-02-28T16:41:32;104.20;;;29.95;;
55497;SDS011;41357;52.806;18.268;2023-02-28T16:44:00;80.30;;;24.20;;
55497;SDS011;41357;52.806;18.268;2023-02-28T16:46:38;68.60;;;22.13;;
55497;SDS011;41357;52.806;18.268;2023-02-28T16:49:04;69.22;;;21.85;;
55497;SDS011;41357;52.806;18.268;2023-02-28T16:51:32;48.35;;;18.60;;
55497;SDS011;41357;52.806;18.268;2023-02-28T16:54:00;63.83;;;19.58;;
55497;SDS011;41357;52.806;18.268;2023-02-28T16:56:26;83.93;;;28.17;;
55497;SDS011;41357;52.806;18.268;2023-02-28T16:58:53;86.18;;;27.25;;
55497;SDS011;41357;52.806;18.268;2023-02-28T17:01:20;60.85;;;23.52;;
55497;SDS011;41357;52.806;18.268;2023-02-28T17:03:47;57.78;;;22.25;;
55497;SDS011;41357;52.806;18.268;2023-02-28T17:06:26;65.63;;;22.88;;
55497;SDS011;41357;52.806;18.268;2023-02-28T17:08:53;53.63;;;20.75;;
55497;SDS011;41357;52.806;18.268;2023-02-28T17:11:20;55.22;;;19.95;;
55497;SDS011;41357;52.806;18.268;2023-02-28T17:13:46;45.53;;;18.73;;
55497;SDS011;41357;52.806;18.268;2023-02-28T17:16:23;46.80;;;18.77;;
55497;SDS011;41357;52.806;18.268;2023-02-28T17:21:29;56.67;;;21.83;;
55497;SDS011;41357;52.806;18.268;2023-02-28T17:23:56;55.58;;;20.67;;
55497;SDS011;41357;52.806;18.268;2023-02-28T17:26:23;61.40;;;20.55;;
55497;SDS011;41357;52.806;18.268;2023-02-28T17:28:50;63.55;;;21.10;;